Avella, Pennsylvania
Current Conditions -  °F | °C
As of 9:26 AM on Thursday 23 Oct 2014 (Local Time) from KHLG Reporting Station
Overcast Overcast  
Wind Chill:   Ceiling: 1300
Heat Index:   Visibility: 10mi
Dew Point:   Wind: 7mph
Humidity: 89%   Direction: 310°NW
Pressure: 30.17"   Gusts: NA
Location:  40.28°N, 80.46°W
Report Text: KHLG 231326Z 31006KT 10SM OVC013 08/06 A3017 RMK AO2 T00780061
Loading
Personal Weather Stations






























Interactive Weather Map
Tropical Storm Tracking
New forecast layout! Learn more

10-Day Weather Forecast

Advertisements
Track Severe Weather on mobile